Time;durP1;ratioP1;P1;durP2;ratioP2;P2;SDS_P1;SDS_P2;PMS_P1;PMS_P2;Temp;Humidity;BMP_temperature;BMP_pressure;BME280_temperature;BME280_humidity;BME280_pressure;Samples;Min_cycle;Max_cycle;Signal;HPM_P1;HPM_P2
2021/07/10 00:01:13;;;;;;;1.20;1.20;;;16.20;99.90;;;;;;5106912;28;20233;-62
2021/07/10 00:03:40;;;;;;;1.23;1.13;;;16.10;99.90;;;;;;5098114;28;20477;-62
2021/07/10 00:06:07;;;;;;;1.38;1.30;;;16.10;99.90;;;;;;5106321;28;20209;-62
2021/07/10 00:08:34;;;;;;;1.50;1.10;;;16.00;99.90;;;;;;5098030;28;20236;-63
2021/07/10 00:11:03;;;;;;;1.05;0.95;;;16.00;99.90;;;;;;5097876;28;20242;-62
2021/07/10 00:13:30;;;;;;;3.72;1.50;;;16.00;99.90;;;;;;5103548;28;20205;-62
2021/07/10 00:15:58;;;;;;;1.10;1.10;;;16.00;99.90;;;;;;5096870;28;20446;-62
2021/07/10 00:18:25;;;;;;;1.30;1.23;;;16.10;99.90;;;;;;5098368;28;20217;-62
2021/07/10 00:20:52;;;;;;;1.45;1.35;;;16.10;99.90;;;;;;5097345;28;20225;-63
2021/07/10 00:23:19;;;;;;;1.50;1.40;;;16.30;99.90;;;;;;5106657;28;20210;-63
2021/07/10 00:25:46;;;;;;;1.20;1.20;;;16.30;99.90;;;;;;5093552;28;20488;-63
2021/07/10 00:28:13;;;;;;;1.38;1.27;;;16.40;99.90;;;;;;5106859;28;20285;-62
2021/07/10 00:30:40;;;;;;;1.20;1.20;;;16.50;99.90;;;;;;5099150;28;20199;-62
2021/07/10 00:33:07;;;;;;;1.30;1.30;;;16.60;99.90;;;;;;5104555;28;20228;-63
2021/07/10 00:35:36;;;;;;;1.70;1.60;;;16.60;99.90;;;;;;5081296;28;20215;-62
2021/07/10 00:38:03;;;;;;;1.70;1.60;;;17.30;99.90;;;;;;5095279;28;20212;-62
2021/07/10 00:40:30;;;;;;;1.75;1.65;;;16.80;99.90;;;;;;5097051;28;20244;-62
2021/07/10 00:42:57;;;;;;;1.70;1.60;;;16.90;99.90;;;;;;5090906;28;20499;-62
2021/07/10 00:45:24;;;;;;;1.30;1.20;;;17.00;99.90;;;;;;5103130;28;20932;-62
2021/07/10 00:47:51;;;;;;;1.30;1.20;;;17.00;99.90;;;;;;5088728;28;20213;-62
2021/07/10 00:50:21;;;;;;;1.13;1.13;;;17.20;99.90;;;;;;5088751;28;20452;-62
2021/07/10 00:52:49;;;;;;;1.53;1.43;;;17.20;99.90;;;;;;5099344;28;20208;-63
2021/07/10 00:55:20;;;;;;;1.73;1.63;;;17.10;99.90;;;;;;5090825;28;20680;-62
2021/07/10 00:57:47;;;;;;;1.85;1.75;;;17.10;99.90;;;;;;5097834;28;20203;-62
2021/07/10 01:00:17;;;;;;;1.67;1.57;;;17.10;99.90;;;;;;5101484;28;20213;-62
2021/07/10 01:02:47;;;;;;;1.97;1.87;;;17.10;99.90;;;;;;5095594;28;20590;-62
2021/07/10 01:05:24;;;;;;;1.20;1.20;;;17.10;99.90;;;;;;5101389;28;20775;-62
2021/07/10 01:07:52;;;;;;;3.55;1.40;;;17.10;99.90;;;;;;5100873;28;20764;-62
2021/07/10 01:10:19;;;;;;;1.90;1.47;;;17.10;99.90;;;;;;5100682;28;20233;-62
2021/07/10 01:12:49;;;;;;;4.10;1.30;;;17.10;99.90;;;;;;5101410;28;20694;-62
2021/07/10 01:15:18;;;;;;;1.37;1.27;;;17.30;99.90;;;;;;5087641;28;20490;-62
2021/07/10 01:17:46;;;;;;;1.70;1.23;;;17.30;99.90;;;;;;5101272;28;20490;-62
2021/07/10 01:20:19;;;;;;;1.30;1.30;;;17.30;99.90;;;;;;5100544;28;20418;-63
2021/07/10 01:22:48;;;;;;;1.30;1.30;;;17.40;99.90;;;;;;5100874;28;20459;-63
2021/07/10 01:25:21;;;;;;;1.23;1.23;;;17.40;99.90;;;;;;5095826;28;20224;-63
2021/07/10 01:27:50;;;;;;;1.50;1.40;;;17.40;99.90;;;;;;5080942;28;20659;-63
2021/07/10 01:30:20;;;;;;;2.63;1.30;;;17.40;99.90;;;;;;5098499;28;20764;-63
2021/07/10 01:32:49;;;;;;;1.50;1.40;;;17.30;99.90;;;;;;5100608;28;20600;-62
2021/07/10 01:35:17;;;;;;;1.48;1.38;;;17.40;99.90;;;;;;5100199;28;20465;-62
2021/07/10 01:37:44;;;;;;;1.63;1.20;;;17.40;99.90;;;;;;5101017;28;20248;-62
2021/07/10 01:40:15;;;;;;;1.23;1.23;;;17.30;99.90;;;;;;5085958;28;20302;-63
2021/07/10 01:42:43;;;;;;;6.23;1.40;;;17.30;99.90;;;;;;5100917;28;20731;-62
2021/07/10 01:45:11;;;;;;;1.90;1.80;;;17.40;99.90;;;;;;5100383;28;20458;-62
2021/07/10 01:47:39;;;;;;;1.47;1.37;;;17.40;99.90;;;;;;5079744;28;20488;-62
2021/07/10 01:50:09;;;;;;;1.40;1.30;;;17.60;99.90;;;;;;5105299;28;20709;-62
2021/07/10 01:52:37;;;;;;;1.30;1.30;;;17.50;99.90;;;;;;5096131;28;20433;-62
2021/07/10 01:55:07;;;;;;;1.63;1.50;;;17.50;99.90;;;;;;5102690;28;20645;-62
2021/07/10 01:57:35;;;;;;;2.27;1.37;;;17.40;99.90;;;;;;5105546;28;20418;-62
2021/07/10 02:00:31;;;;;;;3.53;1.20;;;17.50;99.90;;;;;;5110007;28;20705;-62
2021/07/10 02:02:58;;;;;;;1.77;1.50;;;17.50;99.90;;;;;;5083447;28;20432;-61
2021/07/10 02:05:26;;;;;;;1.50;1.40;;;17.50;99.90;;;;;;5099682;28;20455;-61
2021/07/10 02:07:56;;;;;;;1.00;1.00;;;17.50;99.90;;;;;;5104179;28;20521;-62
2021/07/10 02:10:23;;;;;;;1.70;1.60;;;17.40;99.90;;;;;;5108280;28;20482;-62
2021/07/10 02:12:53;;;;;;;1.30;1.20;;;17.40;99.90;;;;;;5113841;28;20408;-62
2021/07/10 02:15:21;;;;;;;4.20;1.80;;;17.40;99.90;;;;;;5099453;28;20619;-62
2021/07/10 02:17:48;;;;;;;1.13;1.13;;;17.50;99.90;;;;;;5101705;28;20427;-62
2021/07/10 02:20:18;;;;;;;1.10;1.10;;;17.50;99.90;;;;;;5111192;28;20767;-62
2021/07/10 02:22:46;;;;;;;2.20;1.43;;;17.50;99.90;;;;;;5100800;28;20427;-62
2021/07/10 02:25:16;;;;;;;1.73;1.63;;;17.50;99.90;;;;;;5112356;28;20495;-61
2021/07/10 02:27:43;;;;;;;1.63;1.53;;;17.70;99.90;;;;;;5099702;28;20417;-61
2021/07/10 02:30:13;;;;;;;1.20;1.10;;;17.60;99.90;;;;;;5079570;28;20416;-62
2021/07/10 02:32:40;;;;;;;2.90;1.50;;;17.70;99.90;;;;;;5105621;28;20493;-62
2021/07/10 02:35:09;;;;;;;1.10;1.10;;;17.70;99.90;;;;;;5100318;28;20410;-63
2021/07/10 02:37:37;;;;;;;1.77;1.67;;;17.70;99.90;;;;;;5086471;28;20644;-62
2021/07/10 02:40:07;;;;;;;6.73;1.57;;;17.90;99.90;;;;;;5099790;28;20458;-61
2021/07/10 02:42:35;;;;;;;1.00;1.00;;;17.90;99.90;;;;;;5098618;28;20483;-61
2021/07/10 02:45:04;;;;;;;1.17;1.17;;;18.10;99.90;;;;;;5100342;28;20456;-62
2021/07/10 02:47:31;;;;;;;1.53;1.43;;;18.10;99.90;;;;;;5098969;28;20412;-63
2021/07/10 02:49:58;;;;;;;1.80;1.70;;;18.20;99.90;;;;;;5100078;28;20463;-62
2021/07/10 02:52:25;;;;;;;1.20;1.20;;;18.10;99.90;;;;;;5096225;28;20441;-62
2021/07/10 02:54:52;;;;;;;1.40;1.30;;;18.20;99.90;;;;;;5088508;28;20435;-62
2021/07/10 02:57:19;;;;;;;1.20;1.10;;;18.40;99.90;;;;;;5098296;28;20479;-62
2021/07/10 02:59:46;;;;;;;1.57;1.47;;;18.30;99.90;;;;;;5098765;28;20489;-62
2021/07/10 03:02:13;;;;;;;1.53;1.43;;;18.30;99.90;;;;;;5100150;28;20784;-62
2021/07/10 03:04:41;;;;;;;1.30;1.30;;;18.30;99.90;;;;;;5098572;28;20651;-62
2021/07/10 03:07:08;;;;;;;1.30;1.30;;;18.20;99.90;;;;;;5098682;28;20422;-62
2021/07/10 03:09:35;;;;;;;1.50;1.40;;;18.10;99.90;;;;;;5097300;28;20428;-63
2021/07/10 03:12:03;;;;;;;1.23;1.13;;;17.90;99.90;;;;;;5098890;28;20448;-62
2021/07/10 03:14:31;;;;;;;1.83;1.73;;;17.90;99.90;;;;;;5085908;28;20636;-62
2021/07/10 03:16:58;;;;;;;4.20;1.77;;;17.80;99.90;;;;;;5098694;28;20834;-62
2021/07/10 03:19:25;;;;;;;1.70;1.60;;;17.80;99.90;;;;;;5098105;28;20444;-63
2021/07/10 03:21:52;;;;;;;2.20;2.10;;;17.70;99.90;;;;;;5099301;28;20540;-61
2021/07/10 03:24:19;;;;;;;1.90;1.80;;;17.60;99.90;;;;;;5095063;28;20760;-61
2021/07/10 03:26:46;;;;;;;1.77;1.67;;;17.50;99.90;;;;;;5096736;28;20493;-62
2021/07/10 03:29:13;;;;;;;2.00;1.90;;;17.50;99.90;;;;;;5098511;28;20646;-61
2021/07/10 03:31:40;;;;;;;1.63;1.53;;;17.50;99.90;;;;;;5098218;28;20647;-62
2021/07/10 03:34:07;;;;;;;2.07;1.83;;;17.50;99.90;;;;;;5097033;28;20483;-62
2021/07/10 03:36:34;;;;;;;1.87;1.77;;;17.50;99.90;;;;;;5105538;28;20442;-62
2021/07/10 03:39:01;;;;;;;2.00;1.90;;;17.40;99.90;;;;;;5097171;28;20443;-62
2021/07/10 03:41:28;;;;;;;1.80;1.70;;;17.40;99.90;;;;;;5098402;28;20453;-62
2021/07/10 03:43:55;;;;;;;2.47;2.37;;;17.30;99.90;;;;;;5097614;28;20411;-62
2021/07/10 03:46:22;;;;;;;2.63;2.37;;;17.30;99.90;;;;;;5098439;28;20497;-62
2021/07/10 03:48:49;;;;;;;1.90;1.80;;;17.40;99.90;;;;;;5096261;28;20452;-61
2021/07/10 03:51:16;;;;;;;3.77;2.40;;;17.30;99.90;;;;;;5086287;28;20480;-61
2021/07/10 03:53:44;;;;;;;2.60;2.37;;;17.40;99.90;;;;;;5097692;28;20511;-62
2021/07/10 03:56:11;;;;;;;2.40;2.30;;;17.50;99.90;;;;;;5097682;28;20418;-63
2021/07/10 03:58:38;;;;;;;2.37;2.27;;;17.40;99.90;;;;;;5080259;28;20972;-62
2021/07/10 04:01:05;;;;;;;2.10;2.00;;;17.40;99.90;;;;;;5097575;28;20415;-63
2021/07/10 04:03:32;;;;;;;2.03;1.87;;;17.40;99.90;;;;;;5098187;28;20493;-63
2021/07/10 04:05:59;;;;;;;2.10;2.00;;;17.40;99.90;;;;;;5083049;28;20495;-62
2021/07/10 04:08:26;;;;;;;2.73;2.40;;;17.50;99.90;;;;;;5080119;28;20513;-62
2021/07/10 04:10:53;;;;;;;3.23;3.00;;;17.60;99.90;;;;;;5097523;28;20735;-61
2021/07/10 04:13:20;;;;;;;2.40;2.20;;;17.60;99.90;;;;;;5097912;28;20441;-62
2021/07/10 04:15:47;;;;;;;2.73;2.53;;;17.60;99.90;;;;;;5097432;28;20415;-61
2021/07/10 04:18:14;;;;;;;2.67;2.47;;;17.60;99.90;;;;;;5079735;28;20444;-62
2021/07/10 04:20:42;;;;;;;2.33;2.23;;;17.60;99.90;;;;;;5098007;28;20483;-62
2021/07/10 04:23:09;;;;;;;2.73;2.53;;;17.60;99.90;;;;;;5097474;28;20738;-62
2021/07/10 04:25:36;;;;;;;2.63;2.30;;;17.50;99.90;;;;;;5097756;28;20698;-63
2021/07/10 04:28:03;;;;;;;2.50;2.30;;;17.50;99.90;;;;;;5100511;28;20419;-63
2021/07/10 04:30:30;;;;;;;2.70;2.50;;;17.70;99.90;;;;;;5101599;28;20441;-62
2021/07/10 04:32:57;;;;;;;3.00;2.60;;;17.70;99.90;;;;;;5101094;28;20774;-62
2021/07/10 04:35:24;;;;;;;2.53;2.33;;;17.70;99.90;;;;;;5096313;28;20420;-62
2021/07/10 04:37:51;;;;;;;2.47;2.27;;;17.70;99.90;;;;;;5110331;28;20623;-63
2021/07/10 04:40:18;;;;;;;2.80;2.60;;;17.80;99.90;;;;;;5119348;28;20461;-63
2021/07/10 04:42:46;;;;;;;2.60;2.43;;;18.00;99.90;;;;;;5108843;28;20664;-62
2021/07/10 04:45:13;;;;;;;4.07;2.43;;;18.10;99.90;;;;;;5120697;28;20806;-62
2021/07/10 04:47:41;;;;;;;3.90;2.67;;;18.00;99.90;;;;;;5120534;28;20450;-61
2021/07/10 04:50:09;;;;;;;2.80;2.60;;;18.20;99.90;;;;;;5109280;28;20420;-61
2021/07/10 04:52:37;;;;;;;2.53;2.40;;;18.50;99.90;;;;;;5119307;28;20590;-62
2021/07/10 04:55:05;;;;;;;4.63;2.90;;;18.70;99.90;;;;;;5121270;28;20460;-62
2021/07/10 04:57:32;;;;;;;3.53;3.23;;;18.90;99.90;;;;;;5098960;28;20467;-62
2021/07/10 04:59:59;;;;;;;2.50;2.40;;;18.90;99.90;;;;;;5110165;28;20461;-63
2021/07/10 05:02:26;;;;;;;3.57;2.70;;;18.90;99.90;;;;;;5119750;28;20418;-63
2021/07/10 05:04:53;;;;;;;4.27;2.57;;;18.80;99.90;;;;;;5102773;28;20447;-62
2021/07/10 05:07:21;;;;;;;2.87;2.73;;;18.90;99.90;;;;;;5106465;28;20449;-62
2021/07/10 05:09:49;;;;;;;3.30;3.00;;;18.90;99.90;;;;;;5120173;28;20433;-61
2021/07/10 05:12:18;;;;;;;3.67;2.23;;;19.10;99.90;;;;;;5097928;28;20467;-62
2021/07/10 05:14:45;;;;;;;3.97;2.50;;;19.20;99.90;;;;;;5085005;28;20428;-64
2021/07/10 05:17:12;;;;;;;3.10;2.67;;;19.30;99.90;;;;;;5109994;28;20481;-62
2021/07/10 05:19:39;;;;;;;3.00;2.80;;;19.30;99.90;;;;;;5114136;28;20420;-63
2021/07/10 05:22:06;;;;;;;3.33;2.47;;;19.20;99.90;;;;;;5119021;28;20444;-63
2021/07/10 05:24:33;;;;;;;5.03;2.97;;;19.50;99.90;;;;;;5116391;28;20437;-62
2021/07/10 05:27:01;;;;;;;2.67;2.57;;;19.70;99.90;;;;;;5106161;28;20445;-62
2021/07/10 05:29:28;;;;;;;3.90;2.33;;;19.80;99.90;;;;;;5117884;28;20473;-62
2021/07/10 05:31:55;;;;;;;2.80;2.70;;;19.70;99.90;;;;;;5112326;28;20441;-61
2021/07/10 05:34:22;;;;;;;3.00;2.80;;;19.40;99.90;;;;;;5111145;28;20762;-63
2021/07/10 05:36:49;;;;;;;8.70;5.83;;;19.40;99.90;;;;;;5103738;28;20449;-62
2021/07/10 05:39:16;;;;;;;2.63;2.43;;;19.50;99.90;;;;;;5100475;28;20487;-61
2021/07/10 05:41:43;;;;;;;4.10;2.70;;;19.50;99.90;;;;;;5101103;28;20495;-62
2021/07/10 05:44:10;;;;;;;3.17;2.87;;;19.60;99.90;;;;;;5105016;28;20435;-62
2021/07/10 05:46:37;;;;;;;2.80;2.60;;;19.60;99.90;;;;;;5106880;28;20481;-61
2021/07/10 05:49:05;;;;;;;2.90;2.60;;;19.60;99.90;;;;;;5100499;28;20802;-62
2021/07/10 05:51:32;;;;;;;2.50;2.30;;;19.60;99.90;;;;;;5103118;28;20431;-62
2021/07/10 05:53:59;;;;;;;2.97;2.80;;;19.40;99.90;;;;;;5088628;28;20464;-63
2021/07/10 05:56:26;;;;;;;3.03;2.83;;;19.40;99.90;;;;;;5091149;28;20532;-63
2021/07/10 05:58:53;;;;;;;3.37;3.07;;;19.70;99.90;;;;;;5088497;28;20755;-62
2021/07/10 06:01:21;;;;;;;3.40;2.70;;;19.90;99.90;;;;;;5102936;28;20466;-63
2021/07/10 06:03:49;;;;;;;2.60;2.50;;;19.80;99.90;;;;;;5100170;28;20408;-63
2021/07/10 06:06:16;;;;;;;2.50;2.33;;;19.90;99.90;;;;;;5087878;28;20812;-62
2021/07/10 06:08:43;;;;;;;2.77;2.57;;;20.10;99.90;;;;;;5106238;28;20442;-63
2021/07/10 06:11:10;;;;;;;2.23;2.13;;;20.20;99.90;;;;;;5088140;28;20778;-63
2021/07/10 06:13:38;;;;;;;2.60;2.40;;;20.20;99.90;;;;;;5090844;28;20464;-63
2021/07/10 06:16:05;;;;;;;3.60;2.60;;;20.40;99.90;;;;;;5078940;28;20418;-62
2021/07/10 06:18:32;;;;;;;2.50;2.30;;;20.80;99.90;;;;;;5091355;28;21081;-62
2021/07/10 06:21:00;;;;;;;2.90;2.70;;;21.50;99.90;;;;;;5080501;28;20456;-62
2021/07/10 06:23:27;;;;;;;2.30;2.20;;;22.20;99.90;;;;;;5093260;28;20811;-63
2021/07/10 06:25:54;;;;;;;3.90;3.63;;;22.30;99.90;;;;;;5092704;28;20492;-63
2021/07/10 06:28:21;;;;;;;3.90;2.43;;;22.50;99.90;;;;;;5085378;28;20419;-62
2021/07/10 06:30:48;;;;;;;3.50;3.30;;;22.90;99.90;;;;;;5088555;28;20420;-62
2021/07/10 06:33:15;;;;;;;4.17;3.97;;;23.70;99.90;;;;;;5093926;28;20436;-62
2021/07/10 06:35:43;;;;;;;3.80;3.60;;;25.00;99.90;;;;;;5089273;28;20796;-62
2021/07/10 06:38:10;;;;;;;3.30;3.20;;;25.20;99.90;;;;;;5095599;28;20450;-64
2021/07/10 06:40:37;;;;;;;4.43;3.67;;;25.90;99.90;;;;;;5099772;28;20541;-62
2021/07/10 06:43:04;;;;;;;3.87;3.77;;;25.80;99.90;;;;;;5099374;28;20443;-62
2021/07/10 06:45:31;;;;;;;3.50;3.40;;;25.30;99.90;;;;;;5101471;28;20470;-62
2021/07/10 06:48:01;;;;;;;5.10;4.20;;;25.00;99.90;;;;;;5100124;28;20449;-62
2021/07/10 06:50:29;;;;;;;3.90;3.70;;;25.40;99.90;;;;;;5099444;28;20454;-61
2021/07/10 06:52:57;;;;;;;4.20;4.00;;;26.20;99.90;;;;;;5100118;28;20443;-61
2021/07/10 06:55:24;;;;;;;5.13;4.93;;;28.60;97.30;;;;;;5100392;28;20667;-63
2021/07/10 06:57:52;;;;;;;5.50;5.00;;;29.90;93.50;;;;;;5093037;28;20778;-62
2021/07/10 07:00:19;;;;;;;6.30;6.10;;;31.20;90.30;;;;;;5095980;28;20442;-62
2021/07/10 07:02:47;;;;;;;6.70;6.50;;;33.50;82.40;;;;;;5094214;28;20435;-63
2021/07/10 07:05:14;;;;;;;8.27;7.97;;;35.00;72.10;;;;;;5094747;28;20453;-62
2021/07/10 07:07:42;;;;;;;7.70;7.40;;;35.60;68.20;;;;;;5100524;28;20720;-63
2021/07/10 07:10:11;;;;;;;7.57;7.30;;;35.50;62.10;;;;;;5100843;28;20478;-63
2021/07/10 07:12:39;;;;;;;6.73;6.43;;;33.60;67.20;;;;;;5097936;28;20461;-63
2021/07/10 07:15:09;;;;;;;7.10;6.90;;;30.00;76.30;;;;;;5100512;28;20443;-63
2021/07/10 07:17:36;;;;;;;7.50;7.20;;;28.90;80.70;;;;;;5088681;28;20445;-63
2021/07/10 07:20:06;;;;;;;6.63;6.33;;;29.50;78.70;;;;;;5091587;28;20459;-63
2021/07/10 07:22:37;;;;;;;7.63;7.23;;;31.20;73.60;;;;;;5095448;28;20443;-63
2021/07/10 07:25:05;;;;;;;7.53;7.33;;;31.50;72.60;;;;;;5089298;28;20435;-63
2021/07/10 07:27:32;;;;;;;6.80;6.60;;;31.10;74.00;;;;;;5079986;28;20443;-63
2021/07/10 07:29:59;;;;;;;6.50;6.23;;;30.30;75.10;;;;;;5100112;28;20439;-62
2021/07/10 07:32:29;;;;;;;6.83;6.53;;;29.50;77.70;;;;;;5097663;28;20554;-63
2021/07/10 07:34:56;;;;;;;6.97;6.67;;;28.60;80.80;;;;;;5098388;28;20446;-63
2021/07/10 07:37:23;;;;;;;6.67;6.30;;;27.60;86.20;;;;;;5094390;28;20440;-63
2021/07/10 07:39:50;;;;;;;6.10;5.90;;;26.80;86.10;;;;;;5098817;28;20443;-63
2021/07/10 07:42:18;;;;;;;5.43;5.23;;;26.20;88.00;;;;;;5099471;28;20438;-63
2021/07/10 07:44:45;;;;;;;5.60;5.40;;;25.80;90.10;;;;;;5097630;28;20613;-63
2021/07/10 07:47:14;;;;;;;5.40;5.20;;;25.80;90.90;;;;;;5097407;28;20474;-63
2021/07/10 07:49:43;;;;;;;5.67;5.47;;;26.10;90.80;;;;;;5107410;28;20495;-63
2021/07/10 07:52:11;;;;;;;5.90;5.60;;;26.40;90.10;;;;;;5115983;28;20454;-63
2021/07/10 07:54:38;;;;;;;5.90;5.70;;;28.10;88.20;;;;;;5098307;28;20637;-63
2021/07/10 07:57:06;;;;;;;6.80;6.60;;;30.30;81.10;;;;;;5094659;28;20438;-64
2021/07/10 07:59:33;;;;;;;7.63;7.23;;;31.80;72.50;;;;;;5087149;28;20443;-62
2021/07/10 08:02:00;;;;;;;7.80;7.50;;;33.60;67.90;;;;;;5094183;28;20701;-63
2021/07/10 08:04:28;;;;;;;7.70;7.40;;;35.30;62.50;;;;;;5101833;28;20447;-63
2021/07/10 08:06:55;;;;;;;7.73;7.43;;;36.60;57.90;;;;;;5096201;28;20496;-63
2021/07/10 08:09:22;;;;;;;8.30;8.00;;;36.80;56.20;;;;;;5102205;28;20454;-64
2021/07/10 08:11:49;;;;;;;8.70;8.40;;;36.80;57.20;;;;;;5096473;28;20478;-63
2021/07/10 08:14:16;;;;;;;8.13;7.83;;;36.50;54.10;;;;;;5103911;28;20434;-63
2021/07/10 08:16:44;;;;;;;7.70;7.47;;;36.90;54.00;;;;;;5094682;28;20434;-63
2021/07/10 08:19:11;;;;;;;8.00;7.70;;;35.80;55.90;;;;;;5100197;28;20439;-64
2021/07/10 08:21:39;;;;;;;8.23;7.97;;;34.30;56.20;;;;;;5106508;28;21020;-63
2021/07/10 08:24:07;;;;;;;7.50;7.30;;;34.60;57.90;;;;;;5101234;28;20471;-63
2021/07/10 08:26:34;;;;;;;7.30;7.00;;;35.00;55.10;;;;;;5092141;28;20479;-64
2021/07/10 08:29:02;;;;;;;8.07;7.77;;;36.50;52.80;;;;;;5102521;28;20768;-64
2021/07/10 08:31:29;;;;;;;9.00;8.70;;;36.70;52.90;;;;;;5092955;28;20465;-63
2021/07/10 08:33:56;;;;;;;8.77;8.47;;;37.20;52.70;;;;;;5089035;28;20442;-64
2021/07/10 08:36:23;;;;;;;7.97;7.77;;;37.90;51.20;;;;;;5094789;28;21066;-64
2021/07/10 08:38:50;;;;;;;8.43;8.13;;;39.40;48.30;;;;;;5101264;28;20443;-63
2021/07/10 08:41:17;;;;;;;8.47;8.27;;;38.90;47.20;;;;;;5108485;28;20637;-63
2021/07/10 08:43:45;;;;;;;8.97;8.60;;;39.00;46.70;;;;;;5101432;28;20533;-63
2021/07/10 08:46:15;;;;;;;10.43;9.83;;;38.80;47.50;;;;;;5108388;28;20478;-64
2021/07/10 08:48:42;;;;;;;8.47;8.07;;;38.10;47.80;;;;;;5109626;28;20512;-64
2021/07/10 08:51:11;;;;;;;8.90;8.60;;;37.50;49.10;;;;;;5100245;28;20684;-64
2021/07/10 08:53:39;;;;;;;8.47;8.17;;;35.10;52.00;;;;;;5098434;28;20905;-63
2021/07/10 08:56:08;;;;;;;8.20;7.90;;;33.00;55.20;;;;;;5099103;28;20650;-63
2021/07/10 08:58:37;;;;;;;7.70;7.50;;;33.90;53.30;;;;;;5089632;28;20444;-63
2021/07/10 09:01:06;;;;;;;8.20;7.90;;;33.50;54.60;;;;;;5097017;28;20451;-63
2021/07/10 09:03:33;;;;;;;7.50;7.30;;;32.40;55.10;;;;;;5095702;28;20444;-63
2021/07/10 09:06:01;;;;;;;7.43;7.13;;;31.50;56.90;;;;;;5093972;28;20486;-62
2021/07/10 09:08:29;;;;;;;7.00;6.80;;;30.50;58.90;;;;;;5072430;28;20459;-63
2021/07/10 09:11:13;;;;;;;6.80;6.50;;;29.40;61.30;;;;;;5095379;28;20466;-64
2021/07/10 09:14:01;;;;;;;6.67;6.47;;;29.90;63.80;;;;;;5094204;28;20479;-63
2021/07/10 09:16:30;;;;;;;7.27;6.97;;;30.00;61.00;;;;;;5089181;28;20792;-63
2021/07/10 09:19:09;;;;;;;7.97;7.63;;;29.90;62.10;;;;;;5093481;28;20436;-63
2021/07/10 09:21:39;;;;;;;6.73;6.53;;;29.70;62.10;;;;;;5097791;28;20438;-63
2021/07/10 09:24:18;;;;;;;7.77;7.10;;;29.40;63.70;;;;;;5088757;28;20440;-63
2021/07/10 09:26:47;;;;;;;6.70;6.50;;;29.20;64.80;;;;;;5100962;28;20920;-63
2021/07/10 09:29:17;;;;;;;7.93;7.63;;;31.30;59.50;;;;;;5102617;28;20488;-63
2021/07/10 09:31:47;;;;;;;7.50;7.10;;;31.70;58.30;;;;;;5090613;28;20445;-63
2021/07/10 09:34:17;;;;;;;6.80;6.60;;;32.10;57.90;;;;;;5100324;28;20443;-63
2021/07/10 09:36:54;;;;;;;7.53;7.20;;;31.50;60.00;;;;;;5089520;28;20475;-63
2021/07/10 09:39:23;;;;;;;6.83;6.63;;;31.10;61.20;;;;;;5100494;28;20484;-63
2021/07/10 09:41:52;;;;;;;7.07;6.77;;;31.60;59.50;;;;;;5100555;28;20672;-62
2021/07/10 09:44:19;;;;;;;6.77;6.30;;;30.80;60.20;;;;;;5106444;28;20836;-65
2021/07/10 09:46:46;;;;;;;6.17;5.97;;;30.30;61.70;;;;;;5107130;28;20827;-62
2021/07/10 09:49:30;;;;;;;6.33;6.13;;;29.50;62.10;;;;;;5099872;28;20613;-64
2021/07/10 09:52:12;;;;;;;7.27;6.70;;;28.80;64.90;;;;;;5091804;28;20450;-62
2021/07/10 09:54:40;;;;;;;5.80;5.60;;;28.60;64.80;;;;;;5087419;28;21071;-63
2021/07/10 09:57:25;;;;;;;6.33;6.13;;;28.50;64.90;;;;;;5086913;28;20433;-63
2021/07/10 10:00:16;;;;;;;6.37;6.17;;;28.30;66.60;;;;;;5092868;28;20431;-63
2021/07/10 10:02:49;;;;;;;6.40;6.20;;;28.00;66.70;;;;;;5066084;28;20470;-62
2021/07/10 10:05:21;;;;;;;6.40;6.10;;;27.80;68.30;;;;;;5094147;28;20500;-63
2021/07/10 10:07:50;;;;;;;5.90;5.70;;;27.80;69.80;;;;;;5099792;28;20500;-64
2021/07/10 10:10:48;;;;;;;6.10;5.90;;;27.50;67.30;;;;;;5105598;28;20464;-64
2021/07/10 10:13:18;;;;;;;5.90;5.70;;;27.10;72.20;;;;;;5096188;28;20440;-62
2021/07/10 10:15:49;;;;;;;5.40;5.20;;;27.40;71.60;;;;;;5099986;28;20439;-63
2021/07/10 10:18:19;;;;;;;6.07;5.77;;;27.20;70.70;;;;;;5099536;28;20437;-64
2021/07/10 10:20:46;;;;;;;6.10;5.90;;;27.10;70.40;;;;;;5099570;28;20440;-64
2021/07/10 10:23:15;;;;;;;6.40;6.10;;;27.20;70.70;;;;;;5099400;28;20891;-62
2021/07/10 10:25:43;;;;;;;6.07;5.87;;;27.10;70.50;;;;;;5098238;28;20634;-64
2021/07/10 10:28:19;;;;;;;5.70;5.23;;;27.10;69.90;;;;;;5088768;28;20513;-65
2021/07/10 10:30:51;;;;;;;5.57;5.37;;;26.60;72.00;;;;;;5098550;28;20447;-63
2021/07/10 10:33:19;;;;;;;5.77;5.57;;;26.70;70.90;;;;;;5084533;28;20449;-63
2021/07/10 10:35:47;;;;;;;6.10;5.90;;;26.60;73.40;;;;;;5099469;28;20439;-64
2021/07/10 10:38:16;;;;;;;6.60;6.10;;;26.80;72.10;;;;;;5099156;28;20484;-64
2021/07/10 10:40:44;;;;;;;6.90;6.60;;;27.00;72.80;;;;;;5099103;28;20474;-63
2021/07/10 10:43:16;;;;;;;7.53;7.03;;;27.20;71.40;;;;;;5099662;28;20435;-64
2021/07/10 10:45:44;;;;;;;6.10;5.90;;;27.40;70.70;;;;;;5098840;28;20493;-63
2021/07/10 10:48:15;;;;;;;6.03;5.83;;;27.10;71.00;;;;;;5099111;28;20544;-63
2021/07/10 10:50:42;;;;;;;5.60;5.40;;;26.70;72.20;;;;;;5098729;28;20466;-64
2021/07/10 10:53:20;;;;;;;6.03;5.80;;;26.30;75.80;;;;;;5093373;28;20482;-64
2021/07/10 10:55:48;;;;;;;6.23;5.90;;;25.90;76.40;;;;;;5085599;28;20454;-64
2021/07/10 10:58:26;;;;;;;5.80;5.50;;;26.00;76.50;;;;;;5093256;28;20453;-63
2021/07/10 11:01:07;;;;;;;5.40;5.30;;;26.30;75.60;;;;;;5085521;28;20481;-63
2021/07/10 11:03:41;;;;;;;5.67;5.47;;;26.60;72.20;;;;;;5098805;28;20501;-63
2021/07/10 11:06:27;;;;;;;6.10;5.80;;;26.80;71.90;;;;;;5089901;28;20621;-63
2021/07/10 11:08:55;;;;;;;6.73;6.50;;;26.70;73.70;;;;;;5094068;28;20646;-63
2021/07/10 11:11:27;;;;;;;5.97;5.77;;;26.70;75.20;;;;;;5086586;28;20525;-64
2021/07/10 11:14:00;;;;;;;5.50;5.30;;;26.70;75.80;;;;;;5093848;28;20447;-63
2021/07/10 11:16:27;;;;;;;6.90;6.60;;;27.00;73.60;;;;;;5098567;28;20804;-64
2021/07/10 11:18:56;;;;;;;6.40;6.10;;;27.50;70.90;;;;;;5098930;28;20762;-64
2021/07/10 11:21:35;;;;;;;6.13;5.83;;;27.80;71.30;;;;;;5089382;28;20465;-63
2021/07/10 11:24:20;;;;;;;5.67;5.47;;;27.70;71.10;;;;;;5092787;28;20436;-64
2021/07/10 11:26:53;;;;;;;5.43;5.23;;;27.40;74.20;;;;;;5098803;28;20482;-64
2021/07/10 11:29:21;;;;;;;5.73;5.53;;;27.10;74.20;;;;;;5096617;28;20481;-64
2021/07/10 11:31:49;;;;;;;5.53;5.33;;;26.70;73.40;;;;;;5090696;28;20439;-63
2021/07/10 11:34:18;;;;;;;5.60;5.40;;;26.70;71.90;;;;;;5107017;28;20430;-63
2021/07/10 11:36:52;;;;;;;5.93;5.30;;;26.70;73.40;;;;;;5101688;28;20473;-63
2021/07/10 11:39:25;;;;;;;5.00;4.90;;;26.80;72.90;;;;;;5102064;28;20438;-64
2021/07/10 11:42:18;;;;;;;5.17;4.87;;;27.00;73.70;;;;;;5095695;28;20443;-66
2021/07/10 11:44:50;;;;;;;5.30;5.10;;;27.50;73.10;;;;;;5092775;28;20854;-64
2021/07/10 11:47:30;;;;;;;5.80;5.53;;;28.10;70.50;;;;;;5093030;28;20473;-64
2021/07/10 11:49:59;;;;;;;6.13;5.83;;;28.30;70.10;;;;;;5094679;28;20728;-63
2021/07/10 11:52:27;;;;;;;5.53;5.33;;;28.20;71.90;;;;;;5087202;28;20441;-64
2021/07/10 11:54:59;;;;;;;4.77;4.57;;;28.10;68.80;;;;;;5091202;28;20513;-63
2021/07/10 11:57:32;;;;;;;6.20;5.90;;;28.20;70.00;;;;;;5083690;28;20777;-64
2021/07/10 12:00:00;;;;;;;6.03;5.80;;;28.10;70.40;;;;;;5102702;28;20816;-64
2021/07/10 12:02:35;;;;;;;6.40;6.00;;;28.20;70.90;;;;;;5086847;28;20451;-64
2021/07/10 12:05:06;;;;;;;6.20;6.00;;;28.20;71.30;;;;;;5098337;28;20451;-64
2021/07/10 12:07:35;;;;;;;5.83;5.43;;;28.30;71.20;;;;;;5096206;28;20480;-64
2021/07/10 12:10:11;;;;;;;5.67;5.47;;;28.30;70.30;;;;;;5102713;28;20480;-63
2021/07/10 12:12:54;;;;;;;5.97;5.50;;;28.40;68.60;;;;;;5083222;28;20845;-63
2021/07/10 12:15:48;;;;;;;6.20;6.00;;;28.50;70.40;;;;;;5088295;28;20435;-63
2021/07/10 12:18:18;;;;;;;9.40;9.00;;;28.80;71.00;;;;;;5105467;28;20435;-64
2021/07/10 12:20:50;;;;;;;6.97;6.57;;;28.70;71.70;;;;;;5094037;28;20447;-64
2021/07/10 12:23:26;;;;;;;6.37;6.10;;;28.70;70.00;;;;;;5105561;28;20435;-65
2021/07/10 12:25:58;;;;;;;6.07;5.87;;;28.80;70.40;;;;;;5102524;28;20470;-64
2021/07/10 12:28:32;;;;;;;6.37;6.07;;;28.90;69.90;;;;;;5100184;28;20475;-64
2021/07/10 12:31:03;;;;;;;6.80;6.40;;;29.20;69.20;;;;;;5097782;28;20442;-64
2021/07/10 12:33:34;;;;;;;5.77;5.57;;;29.10;69.10;;;;;;5101684;28;20840;-64
2021/07/10 12:36:08;;;;;;;6.57;6.27;;;29.30;66.60;;;;;;5105630;28;20435;-65
2021/07/10 12:38:47;;;;;;;6.87;6.57;;;29.60;66.90;;;;;;5096224;28;20442;-63
2021/07/10 12:41:42;;;;;;;6.50;6.20;;;29.40;66.90;;;;;;5093559;28;20435;-65
2021/07/10 12:44:09;;;;;;;6.40;6.13;;;28.20;68.30;;;;;;5086076;28;20577;-64
2021/07/10 12:47:08;;;;;;;6.70;6.40;;;27.70;68.20;;;;;;5095615;28;20757;-64
2021/07/10 12:49:47;;;;;;;6.47;6.10;;;27.50;70.00;;;;;;5096354;28;20474;-64
2021/07/10 12:52:25;;;;;;;6.90;6.60;;;27.50;69.70;;;;;;5095989;28;20775;-65
2021/07/10 12:55:00;;;;;;;5.97;5.77;;;27.50;71.30;;;;;;5097769;28;20720;-65
2021/07/10 12:57:36;;;;;;;6.37;6.17;;;27.00;68.40;;;;;;5090711;28;20439;-65
2021/07/10 13:00:07;;;;;;;6.63;6.43;;;26.10;71.60;;;;;;5097247;28;20442;-64